createdAt,value
2023-03-20T00:00:04.751Z,96.80
2023-03-20T00:02:33.841Z,96.80
2023-03-20T00:05:03.062Z,96.80
2023-03-20T00:07:32.323Z,96.80
2023-03-20T00:10:06.788Z,96.90
2023-03-20T00:12:35.878Z,96.80
2023-03-20T00:15:24.313Z,96.70
2023-03-20T00:17:53.898Z,96.60
2023-03-20T00:20:23.902Z,96.10
2023-03-20T00:22:53.805Z,96.20
2023-03-20T00:25:27.173Z,96.60
2023-03-20T00:27:58.571Z,96.60
2023-03-20T00:30:30.971Z,96.50
2023-03-20T00:33:00.638Z,96.60
2023-03-20T00:35:32.093Z,96.60
2023-03-20T00:38:01.168Z,96.60
2023-03-20T00:40:34.658Z,96.50
2023-03-20T00:43:05.863Z,96.60
2023-03-20T00:45:36.965Z,96.70
2023-03-20T00:48:07.793Z,96.70
2023-03-20T00:50:36.774Z,96.70
2023-03-20T00:53:11.307Z,96.70
2023-03-20T00:55:42.339Z,96.70
2023-03-20T00:58:12.680Z,96.70
2023-03-20T01:00:43.711Z,96.70
2023-03-20T01:03:17.431Z,96.70
2023-03-20T01:05:47.819Z,97.00
2023-03-20T01:08:19.660Z,96.70
2023-03-20T01:10:53.531Z,96.80
2023-03-20T01:13:27.283Z,96.80
2023-03-20T01:16:00.533Z,96.70
2023-03-20T01:18:29.785Z,97.00
2023-03-20T01:21:02.379Z,96.70
2023-03-20T01:23:31.356Z,96.70
2023-03-20T01:26:04.830Z,96.70
2023-03-20T01:28:34.034Z,96.70
2023-03-20T01:31:03.087Z,96.60
2023-03-20T01:33:33.762Z,96.70
2023-03-20T01:36:03.414Z,96.70
2023-03-20T01:38:33.046Z,96.60
2023-03-20T01:41:26.041Z,96.50
2023-03-20T01:43:55.088Z,96.50
2023-03-20T01:46:28.641Z,96.30
2023-03-20T01:49:48.860Z,96.40
2023-03-20T01:52:18.162Z,96.40
2023-03-20T01:54:47.161Z,96.70
2023-03-20T01:57:22.010Z,96.40
2023-03-20T02:00:01.644Z,96.80
2023-03-20T02:02:34.178Z,96.50
2023-03-20T02:05:10.658Z,96.60
2023-03-20T02:07:41.204Z,96.70
2023-03-20T02:10:15.910Z,96.60
2023-03-20T02:12:59.396Z,96.50
2023-03-20T02:15:34.507Z,96.50
2023-03-20T02:18:12.659Z,96.50
2023-03-20T02:20:59.613Z,96.50
2023-03-20T02:23:59.072Z,97.10
2023-03-20T02:26:54.115Z,97.00
2023-03-20T02:30:28.690Z,96.90
2023-03-20T02:33:56.639Z,97.00
2023-03-20T02:37:02.416Z,96.90
2023-03-20T02:39:57.681Z,97.10
2023-03-20T02:42:36.280Z,97.00
2023-03-20T02:45:16.053Z,96.70
2023-03-20T02:47:53.387Z,96.70
2023-03-20T02:50:38.900Z,96.90
2023-03-20T02:53:26.210Z,97.20
2023-03-20T02:56:07.525Z,97.30
2023-03-20T02:58:47.594Z,97.00
2023-03-20T03:01:28.079Z,97.00
2023-03-20T03:04:02.218Z,97.00
2023-03-20T03:06:33.227Z,97.00
2023-03-20T03:09:07.785Z,97.10
2023-03-20T03:11:44.152Z,97.20
2023-03-20T03:14:19.590Z,97.20
2023-03-20T03:16:51.968Z,97.20
2023-03-20T03:19:25.834Z,97.10
2023-03-20T03:21:54.973Z,97.10
2023-03-20T03:24:40.957Z,97.00
2023-03-20T03:27:19.818Z,97.20
2023-03-20T03:29:55.786Z,97.30
2023-03-20T03:32:30.791Z,97.30
2023-03-20T03:35:01.212Z,97.20
2023-03-20T03:37:44.142Z,97.20
2023-03-20T03:40:23.044Z,97.30
2023-03-20T03:43:01.438Z,97.40
2023-03-20T03:45:35.528Z,97.40
2023-03-20T03:48:10.121Z,97.40
2023-03-20T03:50:48.135Z,97.40
2023-03-20T03:53:24.223Z,97.30
2023-03-20T03:55:57.768Z,97.30
2023-03-20T03:58:32.324Z,97.20
2023-03-20T04:01:05.463Z,97.20
2023-03-20T04:03:40.226Z,97.20
2023-03-20T04:06:12.910Z,97.20
2023-03-20T04:08:42.730Z,97.20
2023-03-20T04:11:17.181Z,97.30
2023-03-20T04:13:50.335Z,97.30
2023-03-20T04:16:22.231Z,97.70
2023-03-20T04:18:52.545Z,97.30
2023-03-20T04:21:21.654Z,97.30
2023-03-20T04:23:50.742Z,97.20
2023-03-20T04:26:19.932Z,97.30
2023-03-20T04:28:50.287Z,97.30
2023-03-20T04:31:38.693Z,97.30
2023-03-20T04:34:30.623Z,97.40
2023-03-20T04:37:19.634Z,97.50
2023-03-20T04:39:56.511Z,97.40
2023-03-20T04:42:28.636Z,97.50
2023-03-20T04:45:05.694Z,97.50
2023-03-20T04:47:34.828Z,97.70
2023-03-20T04:50:03.928Z,97.60
2023-03-20T04:52:33.811Z,97.70
2023-03-20T04:55:04.029Z,97.70
2023-03-20T04:57:33.239Z,98.00
2023-03-20T05:00:02.246Z,97.60
2023-03-20T05:02:33.326Z,97.60
2023-03-20T05:05:02.419Z,97.60
2023-03-20T05:07:31.424Z,97.60
2023-03-20T05:10:11.819Z,97.70
2023-03-20T05:12:55.850Z,97.70
2023-03-20T05:15:30.651Z,97.70
2023-03-20T05:18:33.287Z,97.80
2023-03-20T05:21:20.986Z,97.70
2023-03-20T05:24:09.489Z,97.80
2023-03-20T05:26:47.925Z,97.80
2023-03-20T05:29:47.946Z,97.80
2023-03-20T05:32:36.916Z,97.80
2023-03-20T05:35:25.356Z,97.80
2023-03-20T05:38:14.731Z,98.00
2023-03-20T05:41:04.004Z,98.00
2023-03-20T05:43:44.184Z,98.00
2023-03-20T05:46:27.410Z,97.90
2023-03-20T05:49:11.801Z,98.20
2023-03-20T05:51:57.188Z,97.90
2023-03-20T05:54:52.013Z,97.90
2023-03-20T05:57:28.982Z,98.00
2023-03-20T06:00:09.088Z,98.00
2023-03-20T06:02:47.882Z,98.10
2023-03-20T06:05:52.129Z,98.10
2023-03-20T06:08:22.913Z,98.10
2023-03-20T06:10:52.659Z,98.10
2023-03-20T06:13:22.570Z,98.20
2023-03-20T06:15:51.964Z,98.20
2023-03-20T06:18:21.020Z,98.30
2023-03-20T06:20:54.590Z,98.30
2023-03-20T06:23:25.444Z,98.20
2023-03-20T06:25:54.570Z,98.20
2023-03-20T06:28:24.322Z,98.30
2023-03-20T06:31:01.488Z,98.20
2023-03-20T06:33:34.452Z,98.20
2023-03-20T06:36:08.003Z,98.70
2023-03-20T06:38:38.806Z,98.40
2023-03-20T06:41:24.604Z,98.30
2023-03-20T06:44:01.464Z,98.40
2023-03-20T06:46:45.884Z,98.40
2023-03-20T06:49:15.733Z,98.40
2023-03-20T06:51:45.319Z,98.40
2023-03-20T06:54:16.333Z,98.40
2023-03-20T06:56:46.611Z,98.40
2023-03-20T06:59:16.318Z,98.40
2023-03-20T07:01:46.845Z,98.40
2023-03-20T07:04:17.522Z,98.40
2023-03-20T07:06:52.172Z,98.80
2023-03-20T07:09:23.465Z,98.80
2023-03-20T07:11:53.841Z,98.50
2023-03-20T07:14:23.880Z,98.50
2023-03-20T07:16:57.902Z,98.50
2023-03-20T07:19:30.211Z,98.50
2023-03-20T07:22:04.407Z,98.60
2023-03-20T07:24:41.857Z,98.50
2023-03-20T07:27:13.406Z,98.50
2023-03-20T07:29:43.225Z,98.60
2023-03-20T07:32:16.720Z,98.70
2023-03-20T07:34:51.571Z,98.70
2023-03-20T07:37:23.094Z,98.70
2023-03-20T07:40:04.593Z,98.70
2023-03-20T07:42:47.570Z,98.80
2023-03-20T07:45:36.421Z,98.80
2023-03-20T07:48:07.948Z,98.90
2023-03-20T07:50:37.449Z,98.80
2023-03-20T07:53:08.007Z,98.80
2023-03-20T07:55:39.114Z,98.90
2023-03-20T07:58:08.945Z,98.90
2023-03-20T08:00:38.600Z,98.90
2023-03-20T08:03:08.133Z,99.00
2023-03-20T08:05:38.066Z,99.00
2023-03-20T08:08:07.846Z,99.10
2023-03-20T08:10:38.662Z,99.00
2023-03-20T08:13:08.084Z,99.10
2023-03-20T08:15:37.738Z,99.10
2023-03-20T08:18:08.037Z,99.00
2023-03-20T08:20:37.503Z,99.10
2023-03-20T08:23:07.908Z,99.10
2023-03-20T08:25:39.261Z,99.10
2023-03-20T08:28:09.017Z,99.20
2023-03-20T08:30:38.469Z,99.20
2023-03-20T08:33:08.081Z,99.20
2023-03-20T08:35:37.663Z,99.20
2023-03-20T08:38:07.092Z,99.20
2023-03-20T08:40:36.685Z,99.20
2023-03-20T08:43:07.582Z,99.20
2023-03-20T08:45:37.447Z,99.10
2023-03-20T08:48:07.221Z,99.10
2023-03-20T08:50:37.162Z,99.10
2023-03-20T08:53:07.586Z,99.10
2023-03-20T08:55:38.514Z,99.10
2023-03-20T08:58:09.422Z,99.00
2023-03-20T09:00:38.908Z,99.00
2023-03-20T09:03:08.313Z,99.20
2023-03-20T09:05:39.434Z,99.00
2023-03-20T09:08:09.253Z,98.90
2023-03-20T09:10:39.095Z,99.00
2023-03-20T09:13:26.183Z,99.00
2023-03-20T09:15:57.338Z,98.90
2023-03-20T09:18:27.909Z,99.00
2023-03-20T09:20:57.775Z,99.00
2023-03-20T09:23:27.435Z,99.00
2023-03-20T09:25:56.994Z,99.00
2023-03-20T09:28:28.409Z,98.90
2023-03-20T09:30:58.827Z,98.80
2023-03-20T09:33:29.061Z,98.70
2023-03-20T09:35:58.620Z,98.70
2023-03-20T09:38:28.748Z,98.70
2023-03-20T09:41:00.966Z,98.70
2023-03-20T09:44:06.820Z,98.90
2023-03-20T09:47:16.546Z,99.00
2023-03-20T09:50:09.481Z,99.00
2023-03-20T09:52:43.664Z,99.00
2023-03-20T09:55:18.058Z,99.10
2023-03-20T09:57:52.998Z,99.20
2023-03-20T10:00:29.822Z,99.20
2023-03-20T10:03:03.605Z,99.40
2023-03-20T10:05:39.929Z,99.60
2023-03-20T10:08:17.560Z,99.70
2023-03-20T10:10:53.322Z,99.90
2023-03-20T10:13:46.088Z,99.90
2023-03-20T10:16:27.897Z,99.90
2023-03-20T10:19:08.752Z,99.90
2023-03-20T10:21:45.232Z,99.90
2023-03-20T10:24:23.251Z,99.90
2023-03-20T10:26:55.280Z,99.90
2023-03-20T10:29:37.379Z,99.90
2023-03-20T10:32:15.783Z,99.90
2023-03-20T10:35:18.231Z,99.90
2023-03-20T10:38:03.155Z,99.90
2023-03-20T10:40:36.978Z,99.90
2023-03-20T10:43:16.925Z,99.90
2023-03-20T10:45:49.320Z,99.90
2023-03-20T10:48:27.163Z,99.90
2023-03-20T10:51:00.347Z,99.90
2023-03-20T10:53:36.205Z,99.90
2023-03-20T10:56:11.963Z,99.90
2023-03-20T10:58:44.002Z,99.90
2023-03-20T11:01:13.514Z,99.90
2023-03-20T11:03:44.617Z,99.90
2023-03-20T11:06:21.892Z,99.90
2023-03-20T11:08:53.963Z,99.90
2023-03-20T11:11:26.758Z,99.90
2023-03-20T11:13:57.272Z,99.90
2023-03-20T11:16:33.384Z,99.90
2023-03-20T11:19:10.281Z,99.90
2023-03-20T11:21:49.545Z,99.90
2023-03-20T11:24:28.861Z,99.90
2023-03-20T11:27:08.597Z,99.90
2023-03-20T11:29:39.258Z,99.90
2023-03-20T11:32:28.755Z,99.90
2023-03-20T11:35:13.124Z,99.90
2023-03-20T11:37:47.283Z,99.80
2023-03-20T11:40:23.046Z,99.90
2023-03-20T11:42:58.151Z,99.90
2023-03-20T11:45:28.330Z,99.90
2023-03-20T11:47:59.039Z,99.90
2023-03-20T11:50:35.653Z,99.90
2023-03-20T11:53:21.564Z,99.90
2023-03-20T11:56:07.781Z,99.90
2023-03-20T11:58:40.957Z,99.90
2023-03-20T12:01:13.777Z,99.90
2023-03-20T12:03:48.033Z,99.90
2023-03-20T12:06:22.960Z,99.90
2023-03-20T12:09:00.618Z,99.90
2023-03-20T12:11:47.892Z,99.90
2023-03-20T12:14:29.504Z,99.90
2023-03-20T12:17:17.638Z,99.90
2023-03-20T12:19:50.527Z,99.90
2023-03-20T12:22:27.718Z,99.90
2023-03-20T12:25:04.172Z,99.90
2023-03-20T12:27:38.548Z,99.90
2023-03-20T12:30:17.069Z,99.90
2023-03-20T12:32:55.106Z,99.90
2023-03-20T12:35:32.657Z,99.90
2023-03-20T12:38:04.989Z,99.90
2023-03-20T12:40:43.903Z,99.90
2023-03-20T12:43:19.708Z,99.90
2023-03-20T12:45:57.422Z,99.90
2023-03-20T12:48:54.533Z,99.90
2023-03-20T12:51:39.596Z,99.90
2023-03-20T12:54:32.440Z,99.90
2023-03-20T12:57:14.094Z,99.90
2023-03-20T13:00:05.318Z,99.90
2023-03-20T13:02:48.536Z,99.90
2023-03-20T13:05:31.186Z,99.90
2023-03-20T13:08:44.942Z,99.90
2023-03-20T13:11:27.329Z,99.90
2023-03-20T13:14:02.634Z,99.90
2023-03-20T13:16:47.378Z,99.90
2023-03-20T13:19:28.513Z,99.90
2023-03-20T13:22:06.299Z,99.90
2023-03-20T13:24:42.736Z,99.90
2023-03-20T13:27:35.967Z,99.90
2023-03-20T13:30:14.900Z,99.90
2023-03-20T13:32:57.540Z,99.90
2023-03-20T13:35:43.694Z,99.90
2023-03-20T13:38:20.517Z,99.90
2023-03-20T13:40:58.906Z,99.90
2023-03-20T13:43:34.384Z,99.90
2023-03-20T13:46:08.939Z,99.90
2023-03-20T13:48:40.531Z,99.90
2023-03-20T13:51:27.775Z,99.90
2023-03-20T13:54:12.099Z,99.90
2023-03-20T13:56:52.966Z,99.90
2023-03-20T13:59:57.208Z,99.90
2023-03-20T14:02:37.728Z,99.90
2023-03-20T14:05:13.608Z,99.90
2023-03-20T14:07:46.142Z,99.90
2023-03-20T14:10:38.872Z,99.90
2023-03-20T14:13:16.391Z,99.90
2023-03-20T14:15:59.123Z,99.90
2023-03-20T14:18:29.002Z,99.90
2023-03-20T14:21:01.885Z,99.90
2023-03-20T14:23:38.782Z,99.90
2023-03-20T14:26:12.799Z,99.90
2023-03-20T14:28:54.870Z,99.90
2023-03-20T14:31:31.654Z,99.90
2023-03-20T14:34:15.706Z,99.90
2023-03-20T14:36:59.026Z,99.90
2023-03-20T14:39:42.121Z,99.90
2023-03-20T14:42:31.564Z,99.90
2023-03-20T14:45:39.253Z,99.90
2023-03-20T14:48:29.999Z,99.90
2023-03-20T14:51:22.134Z,99.90
2023-03-20T14:54:28.709Z,99.90
2023-03-20T14:57:11.164Z,99.50
2023-03-20T14:59:42.963Z,99.90
2023-03-20T15:02:27.420Z,99.90
2023-03-20T15:04:59.378Z,99.50
2023-03-20T15:07:32.666Z,99.90
2023-03-20T15:10:04.698Z,99.90
2023-03-20T15:12:38.168Z,99.90
2023-03-20T15:16:15.821Z,99.60
2023-03-20T15:18:48.328Z,99.50
2023-03-20T15:21:22.472Z,99.80
2023-03-20T15:23:52.154Z,99.70
2023-03-20T15:26:25.635Z,99.90
2023-03-20T15:29:02.154Z,99.90
2023-03-20T15:31:35.958Z,99.30
2023-03-20T15:34:11.073Z,99.80
2023-03-20T15:36:42.578Z,99.80
2023-03-20T15:39:17.143Z,99.90
2023-03-20T15:41:49.909Z,99.80
2023-03-20T15:44:24.300Z,99.90
2023-03-20T15:47:03.509Z,99.70
2023-03-20T15:49:34.403Z,98.70
2023-03-20T15:52:10.800Z,99.80
2023-03-20T15:54:44.353Z,99.10
2023-03-20T15:57:24.176Z,99.90
2023-03-20T15:59:54.470Z,98.80
2023-03-20T16:02:25.663Z,99.90
2023-03-20T16:04:56.803Z,99.70
2023-03-20T16:07:31.882Z,99.70
2023-03-20T16:10:02.797Z,99.50
2023-03-20T16:12:35.603Z,99.70
2023-03-20T16:15:06.858Z,99.80
2023-03-20T16:17:36.939Z,99.80
2023-03-20T16:20:09.435Z,99.30
2023-03-20T16:22:40.631Z,99.50
2023-03-20T16:25:17.395Z,99.00
2023-03-20T16:27:50.851Z,98.60
2023-03-20T16:30:25.517Z,99.00
2023-03-20T16:33:01.055Z,98.90
2023-03-20T16:35:37.250Z,98.20
2023-03-20T16:38:25.548Z,98.30
2023-03-20T16:40:58.486Z,97.60
2023-03-20T16:43:32.486Z,98.80
2023-03-20T16:46:07.748Z,98.30
2023-03-20T16:48:39.266Z,97.90
2023-03-20T16:51:18.818Z,98.50
2023-03-20T16:53:52.307Z,97.70
2023-03-20T16:56:30.121Z,98.00
2023-03-20T16:58:59.958Z,97.70
2023-03-20T17:01:30.543Z,98.30
2023-03-20T17:04:19.629Z,97.50
2023-03-20T17:06:51.773Z,95.90
2023-03-20T17:09:29.388Z,96.70
2023-03-20T17:12:07.576Z,95.90
2023-03-20T17:14:37.013Z,95.90
2023-03-20T17:17:13.165Z,96.70
2023-03-20T17:19:42.951Z,96.80
2023-03-20T17:22:16.175Z,96.70
2023-03-20T17:24:53.349Z,96.30
2023-03-20T17:27:24.139Z,96.10
2023-03-20T17:29:55.452Z,96.90
2023-03-20T17:32:39.357Z,96.20
2023-03-20T17:38:52.744Z,96.60
2023-03-20T17:41:23.900Z,95.90
2023-03-20T17:43:54.075Z,95.80
2023-03-20T17:46:26.759Z,96.40
2023-03-20T17:49:01.900Z,96.30
2023-03-20T17:51:31.924Z,95.80
2023-03-20T17:54:01.410Z,96.80
2023-03-20T17:56:33.079Z,95.70
2023-03-20T17:59:03.615Z,95.90
2023-03-20T18:01:33.130Z,96.70
2023-03-20T18:04:02.787Z,96.30
2023-03-20T18:06:35.117Z,96.20
2023-03-20T18:09:05.845Z,96.20
2023-03-20T18:11:36.817Z,96.70
2023-03-20T18:14:06.777Z,95.80
2023-03-20T18:16:38.169Z,96.60
2023-03-20T18:19:08.028Z,95.80
2023-03-20T18:21:38.168Z,95.90
2023-03-20T18:24:08.777Z,96.10
2023-03-20T18:26:45.931Z,96.50
2023-03-20T18:29:16.152Z,95.20
2023-03-20T18:31:45.793Z,95.50
2023-03-20T18:34:15.479Z,95.70
2023-03-20T18:36:45.831Z,95.70
2023-03-20T18:39:19.709Z,95.80
2023-03-20T18:41:51.869Z,95.90
2023-03-20T18:44:21.996Z,95.80
2023-03-20T18:46:51.634Z,95.80
2023-03-20T18:49:22.349Z,96.00
2023-03-20T18:51:53.251Z,96.10
2023-03-20T18:54:22.847Z,96.40
2023-03-20T18:56:54.511Z,95.80
2023-03-20T18:59:24.102Z,95.90
2023-03-20T19:01:54.136Z,96.00
2023-03-20T19:04:25.053Z,96.10
2023-03-20T19:06:55.074Z,96.00
2023-03-20T19:09:24.750Z,96.20
2023-03-20T19:11:55.592Z,95.90
2023-03-20T19:14:38.655Z,96.20
2023-03-20T19:17:07.950Z,96.20
2023-03-20T19:19:37.568Z,96.10
2023-03-20T19:22:13.049Z,95.80
2023-03-20T19:24:47.853Z,96.00
2023-03-20T19:27:18.837Z,95.90
2023-03-20T19:29:48.889Z,95.80
2023-03-20T19:32:18.534Z,95.90
2023-03-20T19:35:35.281Z,95.70
2023-03-20T19:37:40.214Z,95.70
2023-03-20T19:40:47.332Z,95.60
2023-03-20T19:43:21.546Z,96.00
2023-03-20T19:45:57.918Z,96.00
2023-03-20T19:48:46.812Z,96.00
2023-03-20T19:51:26.571Z,96.10
2023-03-20T19:53:56.608Z,96.20
2023-03-20T19:56:27.133Z,96.50
2023-03-20T19:58:58.178Z,95.70
2023-03-20T20:01:27.386Z,96.00
2023-03-20T20:03:58.423Z,96.90
2023-03-20T20:06:31.677Z,96.90
2023-03-20T20:09:03.104Z,97.30
2023-03-20T20:11:32.141Z,97.00
2023-03-20T20:14:08.125Z,97.30
2023-03-20T20:16:39.692Z,96.80
2023-03-20T20:19:09.176Z,97.20
2023-03-20T20:24:30.383Z,97.00
2023-03-20T20:27:15.867Z,97.00
2023-03-20T20:29:50.150Z,96.90
2023-03-20T20:32:23.147Z,96.60
2023-03-20T20:38:30.919Z,96.80
2023-03-20T20:40:34.002Z,97.00
2023-03-20T20:43:05.339Z,96.60
2023-03-20T20:45:40.451Z,96.60
2023-03-20T20:48:10.382Z,96.40
2023-03-20T20:50:40.844Z,96.60
2023-03-20T20:53:09.998Z,96.60
2023-03-20T20:55:39.361Z,96.60
2023-03-20T20:58:08.464Z,96.60
2023-03-20T21:00:50.658Z,96.50
2023-03-20T21:03:22.186Z,96.50
2023-03-20T21:05:51.212Z,96.50
2023-03-20T21:08:20.238Z,96.40
2023-03-20T21:10:52.224Z,96.40
2023-03-20T21:13:21.530Z,96.70
2023-03-20T21:16:00.113Z,96.40
2023-03-20T21:18:29.244Z,96.00
2023-03-20T21:21:05.953Z,96.50
2023-03-20T21:23:35.329Z,96.20
2023-03-20T21:26:05.062Z,96.60
2023-03-20T21:28:34.203Z,96.60
2023-03-20T21:31:23.550Z,96.70
2023-03-20T21:33:55.072Z,96.40
2023-03-20T21:36:24.773Z,96.80
2023-03-20T21:39:07.346Z,96.40
2023-03-20T21:41:37.712Z,96.50
2023-03-20T21:44:07.891Z,96.50
2023-03-20T21:47:09.686Z,96.60
2023-03-20T21:53:06.082Z,96.60
2023-03-20T22:01:42.096Z,96.40
2023-03-20T22:04:31.918Z,96.50
2023-03-20T22:12:53.546Z,96.50
2023-03-20T22:18:19.274Z,96.80
2023-03-20T22:21:23.905Z,96.60
2023-03-20T22:24:20.428Z,96.40
2023-03-20T22:27:10.733Z,96.60
2023-03-20T22:41:13.275Z,96.50
2023-03-20T22:44:13.708Z,96.70
2023-03-20T22:46:36.102Z,96.70
2023-03-20T22:48:58.286Z,96.70
2023-03-20T22:51:34.210Z,96.70
2023-03-20T22:54:06.690Z,96.60
2023-03-20T22:56:35.714Z,96.50
2023-03-20T22:59:04.905Z,96.60
2023-03-20T23:01:36.118Z,96.60
2023-03-20T23:04:05.276Z,96.60
2023-03-20T23:06:34.287Z,96.70
2023-03-20T23:09:12.839Z,96.60
2023-03-20T23:11:45.651Z,96.60
2023-03-20T23:14:21.696Z,96.40
2023-03-20T23:16:51.589Z,96.60
2023-03-20T23:19:20.595Z,96.50
2023-03-20T23:21:49.561Z,96.80
2023-03-20T23:24:22.278Z,96.50
2023-03-20T23:26:54.220Z,96.40
2023-03-20T23:29:23.351Z,96.40
2023-03-20T23:31:52.353Z,96.50
2023-03-20T23:34:21.397Z,96.50
2023-03-20T23:36:50.616Z,96.50
2023-03-20T23:39:19.591Z,96.50
2023-03-20T23:42:07.852Z,96.80
2023-03-20T23:44:44.114Z,96.50
2023-03-20T23:47:21.193Z,96.40
2023-03-20T23:49:50.379Z,96.50
2023-03-20T23:52:19.352Z,96.50
2023-03-20T23:54:48.354Z,96.40
2023-03-20T23:57:17.335Z,96.40
2023-03-20T23:59:47.888Z,96.40
